sensor_id;sensor_type;location;lat;lon;timestamp;pressure;altitude;pressure_sealevel;temperature;humidity
57885;BME280;43703;51.060;-0.086;2022-11-09T00:01:01;98704.52;;;7.58;79.66
57885;BME280;43703;51.060;-0.086;2022-11-09T00:03:26;98706.40;;;7.76;78.52
57885;BME280;43703;51.060;-0.086;2022-11-09T00:05:54;98714.86;;;8.29;78.73
57885;BME280;43703;51.060;-0.086;2022-11-09T00:08:18;98715.78;;;8.25;78.06
57885;BME280;43703;51.060;-0.086;2022-11-09T00:10:44;98710.76;;;8.15;75.49
57885;BME280;43703;51.060;-0.086;2022-11-09T00:13:10;98718.38;;;8.31;75.45
57885;BME280;43703;51.060;-0.086;2022-11-09T00:15:35;98721.29;;;7.54;77.02
57885;BME280;43703;51.060;-0.086;2022-11-09T00:18:02;98719.72;;;7.72;76.90
57885;BME280;43703;51.060;-0.086;2022-11-09T00:20:28;98712.66;;;8.38;74.14
57885;BME280;43703;51.060;-0.086;2022-11-09T00:22:53;98717.70;;;7.99;75.39
57885;BME280;43703;51.060;-0.086;2022-11-09T00:25:19;98718.10;;;7.57;75.25
57885;BME280;43703;51.060;-0.086;2022-11-09T00:27:45;98725.30;;;8.51;73.36
57885;BME280;43703;51.060;-0.086;2022-11-09T00:30:11;98728.15;;;7.78;74.72
57885;BME280;43703;51.060;-0.086;2022-11-09T00:32:36;98730.09;;;7.73;74.88
57885;BME280;43703;51.060;-0.086;2022-11-09T00:35:03;98727.95;;;7.68;76.32
57885;BME280;43703;51.060;-0.086;2022-11-09T00:37:28;98733.17;;;7.75;76.38
57885;BME280;43703;51.060;-0.086;2022-11-09T00:39:55;98735.77;;;7.83;77.52
57885;BME280;43703;51.060;-0.086;2022-11-09T00:42:20;98734.58;;;8.16;76.61
57885;BME280;43703;51.060;-0.086;2022-11-09T00:44:46;98739.04;;;8.36;76.67
57885;BME280;43703;51.060;-0.086;2022-11-09T00:47:11;98738.68;;;8.03;76.98
57885;BME280;43703;51.060;-0.086;2022-11-09T00:49:37;98738.27;;;8.13;77.06
57885;BME280;43703;51.060;-0.086;2022-11-09T00:52:03;98740.95;;;8.20;78.77
57885;BME280;43703;51.060;-0.086;2022-11-09T00:54:29;98741.04;;;7.93;78.90
57885;BME280;43703;51.060;-0.086;2022-11-09T00:56:55;98747.30;;;7.67;79.54
57885;BME280;43703;51.060;-0.086;2022-11-09T00:59:21;98745.34;;;7.50;81.13
57885;BME280;43703;51.060;-0.086;2022-11-09T01:01:46;98744.21;;;7.79;80.14
57885;BME280;43703;51.060;-0.086;2022-11-09T01:04:13;98738.85;;;7.94;79.75
57885;BME280;43703;51.060;-0.086;2022-11-09T01:06:38;98738.89;;;7.82;79.57
57885;BME280;43703;51.060;-0.086;2022-11-09T01:09:04;98745.34;;;8.09;79.36
57885;BME280;43703;51.060;-0.086;2022-11-09T01:11:29;98742.27;;;7.74;80.78
57885;BME280;43703;51.060;-0.086;2022-11-09T01:13:58;98740.70;;;8.23;78.82
57885;BME280;43703;51.060;-0.086;2022-11-09T01:16:22;98738.20;;;8.30;78.79
57885;BME280;43703;51.060;-0.086;2022-11-09T01:18:47;98732.76;;;7.56;80.17
57885;BME280;43703;51.060;-0.086;2022-11-09T01:21:13;98733.65;;;7.29;81.28
57885;BME280;43703;51.060;-0.086;2022-11-09T01:23:38;98730.22;;;7.58;81.77
57885;BME280;43703;51.060;-0.086;2022-11-09T01:26:06;98726.66;;;7.76;80.39
57885;BME280;43703;51.060;-0.086;2022-11-09T01:28:30;98733.13;;;8.01;79.59
57885;BME280;43703;51.060;-0.086;2022-11-09T01:31:00;98730.38;;;8.19;77.56
57885;BME280;43703;51.060;-0.086;2022-11-09T01:33:21;98735.34;;;8.23;79.18
57885;BME280;43703;51.060;-0.086;2022-11-09T01:35:48;98727.37;;;7.75;78.71
57885;BME280;43703;51.060;-0.086;2022-11-09T01:38:13;98730.75;;;7.56;80.67
57885;BME280;43703;51.060;-0.086;2022-11-09T01:40:39;98729.92;;;7.74;79.88
57885;BME280;43703;51.060;-0.086;2022-11-09T01:43:07;98732.42;;;8.07;78.77
57885;BME280;43703;51.060;-0.086;2022-11-09T01:45:30;98736.73;;;7.64;80.49
57885;BME280;43703;51.060;-0.086;2022-11-09T01:48:01;98745.42;;;7.59;80.46
57885;BME280;43703;51.060;-0.086;2022-11-09T01:50:29;98744.70;;;7.76;79.93
57885;BME280;43703;51.060;-0.086;2022-11-09T01:52:48;98750.68;;;7.66;80.65
57885;BME280;43703;51.060;-0.086;2022-11-09T01:55:17;98750.02;;;7.99;79.55
57885;BME280;43703;51.060;-0.086;2022-11-09T01:57:42;98754.82;;;8.11;77.78
57885;BME280;43703;51.060;-0.086;2022-11-09T02:00:08;98755.46;;;8.38;77.90
57885;BME280;43703;51.060;-0.086;2022-11-09T02:02:31;98762.57;;;8.53;78.31
57885;BME280;43703;51.060;-0.086;2022-11-09T02:04:58;98762.33;;;7.76;80.41
57885;BME280;43703;51.060;-0.086;2022-11-09T02:07:22;98760.98;;;7.76;81.32
57885;BME280;43703;51.060;-0.086;2022-11-09T02:09:50;98765.51;;;8.08;80.21
57885;BME280;43703;51.060;-0.086;2022-11-09T02:12:12;98763.45;;;8.03;79.73
57885;BME280;43703;51.060;-0.086;2022-11-09T02:14:39;98763.02;;;7.91;78.93
57885;BME280;43703;51.060;-0.086;2022-11-09T02:17:04;98758.38;;;8.06;77.80
57885;BME280;43703;51.060;-0.086;2022-11-09T02:19:30;98760.88;;;8.43;77.32
57885;BME280;43703;51.060;-0.086;2022-11-09T02:21:56;98761.39;;;8.88;77.25
57885;BME280;43703;51.060;-0.086;2022-11-09T02:24:21;98764.63;;;7.71;78.93
57885;BME280;43703;51.060;-0.086;2022-11-09T02:26:49;98759.96;;;7.70;79.45
57885;BME280;43703;51.060;-0.086;2022-11-09T02:29:18;98762.19;;;7.75;80.29
57885;BME280;43703;51.060;-0.086;2022-11-09T02:31:43;98762.47;;;8.14;77.89
57885;BME280;43703;51.060;-0.086;2022-11-09T02:34:07;98755.26;;;8.10;79.24
57885;BME280;43703;51.060;-0.086;2022-11-09T02:36:31;98757.24;;;8.16;79.51
57885;BME280;43703;51.060;-0.086;2022-11-09T02:38:57;98760.24;;;8.01;77.70
57885;BME280;43703;51.060;-0.086;2022-11-09T02:41:23;98771.80;;;8.08;78.51
57885;BME280;43703;51.060;-0.086;2022-11-09T02:43:49;98778.34;;;7.95;79.50
57885;BME280;43703;51.060;-0.086;2022-11-09T02:46:22;98777.57;;;7.67;81.52
57885;BME280;43703;51.060;-0.086;2022-11-09T02:48:40;98768.47;;;8.05;81.67
57885;BME280;43703;51.060;-0.086;2022-11-09T02:51:06;98765.83;;;8.15;80.19
57885;BME280;43703;51.060;-0.086;2022-11-09T02:53:32;98761.24;;;8.32;77.95
57885;BME280;43703;51.060;-0.086;2022-11-09T02:55:57;98778.01;;;7.50;81.49
57885;BME280;43703;51.060;-0.086;2022-11-09T02:58:23;98784.54;;;7.36;82.01
57885;BME280;43703;51.060;-0.086;2022-11-09T03:00:49;98771.63;;;7.89;80.96
57885;BME280;43703;51.060;-0.086;2022-11-09T03:03:15;98769.09;;;8.08;79.40
57885;BME280;43703;51.060;-0.086;2022-11-09T03:05:41;98773.01;;;7.49;81.17
57885;BME280;43703;51.060;-0.086;2022-11-09T03:08:06;98776.68;;;7.39;82.38
57885;BME280;43703;51.060;-0.086;2022-11-09T03:10:32;98775.85;;;7.60;80.83
57885;BME280;43703;51.060;-0.086;2022-11-09T03:12:59;98777.84;;;7.92;79.90
57885;BME280;43703;51.060;-0.086;2022-11-09T03:15:24;98774.70;;;8.50;78.18
57885;BME280;43703;51.060;-0.086;2022-11-09T03:17:50;98778.15;;;7.43;78.59
57885;BME280;43703;51.060;-0.086;2022-11-09T03:20:16;98780.26;;;8.04;77.36
57885;BME280;43703;51.060;-0.086;2022-11-09T03:22:41;98783.34;;;8.38;74.99
57885;BME280;43703;51.060;-0.086;2022-11-09T03:25:07;98780.04;;;8.12;75.78
57885;BME280;43703;51.060;-0.086;2022-11-09T03:27:32;98777.50;;;7.90;74.36
57885;BME280;43703;51.060;-0.086;2022-11-09T03:29:58;98771.75;;;7.92;73.60
57885;BME280;43703;51.060;-0.086;2022-11-09T03:32:24;98780.95;;;8.17;73.09
57885;BME280;43703;51.060;-0.086;2022-11-09T03:34:50;98779.47;;;8.80;72.69
57885;BME280;43703;51.060;-0.086;2022-11-09T03:37:16;98774.62;;;9.00;72.50
57885;BME280;43703;51.060;-0.086;2022-11-09T03:39:41;98766.20;;;8.98;71.63
57885;BME280;43703;51.060;-0.086;2022-11-09T03:42:07;98770.01;;;9.29;69.89
57885;BME280;43703;51.060;-0.086;2022-11-09T03:44:33;98766.44;;;9.72;69.74
57885;BME280;43703;51.060;-0.086;2022-11-09T03:46:59;98769.02;;;9.59;68.47
57885;BME280;43703;51.060;-0.086;2022-11-09T03:49:25;98772.35;;;9.47;68.04
57885;BME280;43703;51.060;-0.086;2022-11-09T03:51:51;98770.73;;;9.16;68.47
57885;BME280;43703;51.060;-0.086;2022-11-09T03:54:16;98778.31;;;9.35;67.73
57885;BME280;43703;51.060;-0.086;2022-11-09T03:56:42;98781.00;;;9.13;68.32
57885;BME280;43703;51.060;-0.086;2022-11-09T03:59:08;98780.82;;;9.17;68.34
57885;BME280;43703;51.060;-0.086;2022-11-09T04:01:34;98778.40;;;8.85;69.94
57885;BME280;43703;51.060;-0.086;2022-11-09T04:04:00;98781.27;;;9.30;68.71
57885;BME280;43703;51.060;-0.086;2022-11-09T04:06:26;98779.12;;;9.46;69.01
57885;BME280;43703;51.060;-0.086;2022-11-09T04:08:52;98779.96;;;9.05;69.12
57885;BME280;43703;51.060;-0.086;2022-11-09T04:11:17;98783.91;;;9.62;69.38
57885;BME280;43703;51.060;-0.086;2022-11-09T04:13:44;98785.63;;;8.86;70.46
57885;BME280;43703;51.060;-0.086;2022-11-09T04:16:09;98789.81;;;9.24;70.62
57885;BME280;43703;51.060;-0.086;2022-11-09T04:18:36;98784.82;;;8.93;71.76
57885;BME280;43703;51.060;-0.086;2022-11-09T04:21:00;98786.45;;;8.97;71.66
57885;BME280;43703;51.060;-0.086;2022-11-09T04:23:26;98782.92;;;9.54;71.24
57885;BME280;43703;51.060;-0.086;2022-11-09T04:25:52;98787.40;;;8.96;71.75
57885;BME280;43703;51.060;-0.086;2022-11-09T04:28:18;98790.77;;;9.24;72.73
57885;BME280;43703;51.060;-0.086;2022-11-09T04:30:43;98790.51;;;8.56;75.37
57885;BME280;43703;51.060;-0.086;2022-11-09T04:33:09;98790.24;;;8.44;75.25
57885;BME280;43703;51.060;-0.086;2022-11-09T04:35:35;98795.41;;;8.13;77.03
57885;BME280;43703;51.060;-0.086;2022-11-09T04:38:04;98800.39;;;7.92;79.14
57885;BME280;43703;51.060;-0.086;2022-11-09T04:40:29;98797.91;;;8.21;77.35
57885;BME280;43703;51.060;-0.086;2022-11-09T04:42:53;98806.72;;;7.79;79.17
57885;BME280;43703;51.060;-0.086;2022-11-09T04:45:18;98807.98;;;7.82;79.35
57885;BME280;43703;51.060;-0.086;2022-11-09T04:47:44;98810.36;;;7.64;79.81
57885;BME280;43703;51.060;-0.086;2022-11-09T04:50:10;98809.65;;;8.01;78.88
57885;BME280;43703;51.060;-0.086;2022-11-09T04:52:36;98806.89;;;8.06;77.88
57885;BME280;43703;51.060;-0.086;2022-11-09T04:55:02;98807.03;;;8.28;77.79
57885;BME280;43703;51.060;-0.086;2022-11-09T04:57:27;98804.00;;;8.15;78.31
57885;BME280;43703;51.060;-0.086;2022-11-09T04:59:53;98803.45;;;8.22;77.77
57885;BME280;43703;51.060;-0.086;2022-11-09T05:02:18;98806.82;;;8.04;78.08
57885;BME280;43703;51.060;-0.086;2022-11-09T05:04:45;98824.36;;;7.91;78.50
57885;BME280;43703;51.060;-0.086;2022-11-09T05:07:10;98831.68;;;7.87;80.46
57885;BME280;43703;51.060;-0.086;2022-11-09T05:09:36;98817.19;;;8.08;80.40
57885;BME280;43703;51.060;-0.086;2022-11-09T05:12:02;98804.23;;;7.28;83.09
57885;BME280;43703;51.060;-0.086;2022-11-09T05:14:28;98802.76;;;7.65;81.94
57885;BME280;43703;51.060;-0.086;2022-11-09T05:16:54;98837.85;;;7.42;82.22
57885;BME280;43703;51.060;-0.086;2022-11-09T05:19:19;98834.08;;;7.99;81.36
57885;BME280;43703;51.060;-0.086;2022-11-09T05:21:45;98821.18;;;7.84;82.19
57885;BME280;43703;51.060;-0.086;2022-11-09T05:24:11;98824.09;;;7.36;82.21
57885;BME280;43703;51.060;-0.086;2022-11-09T05:26:38;98826.00;;;7.08;83.45
57885;BME280;43703;51.060;-0.086;2022-11-09T05:29:05;98828.37;;;7.10;82.69
57885;BME280;43703;51.060;-0.086;2022-11-09T05:31:29;98832.43;;;7.30;83.14
57885;BME280;43703;51.060;-0.086;2022-11-09T05:33:54;98839.97;;;7.09;83.56
57885;BME280;43703;51.060;-0.086;2022-11-09T05:36:20;98833.96;;;7.15;83.41
57885;BME280;43703;51.060;-0.086;2022-11-09T05:38:46;98830.27;;;7.63;82.37
57885;BME280;43703;51.060;-0.086;2022-11-09T05:41:12;98834.11;;;7.57;81.23
57885;BME280;43703;51.060;-0.086;2022-11-09T05:43:37;98836.10;;;8.16;78.46
57885;BME280;43703;51.060;-0.086;2022-11-09T05:46:04;98850.07;;;7.58;80.46
57885;BME280;43703;51.060;-0.086;2022-11-09T05:48:29;98858.66;;;6.96;84.15
57885;BME280;43703;51.060;-0.086;2022-11-09T05:50:55;98850.24;;;7.10;82.50
57885;BME280;43703;51.060;-0.086;2022-11-09T05:53:21;98831.14;;;8.22;79.00
57885;BME280;43703;51.060;-0.086;2022-11-09T05:55:47;98827.78;;;8.01;78.19
57885;BME280;43703;51.060;-0.086;2022-11-09T05:58:12;98835.72;;;7.29;79.44
57885;BME280;43703;51.060;-0.086;2022-11-09T06:00:39;98830.59;;;7.80;79.16
57885;BME280;43703;51.060;-0.086;2022-11-09T06:03:06;98842.61;;;7.69;78.85
57885;BME280;43703;51.060;-0.086;2022-11-09T06:05:31;98844.26;;;7.55;78.09
57885;BME280;43703;51.060;-0.086;2022-11-09T06:08:01;98850.33;;;7.84;77.96
57885;BME280;43703;51.060;-0.086;2022-11-09T06:10:21;98846.75;;;7.85;77.49
57885;BME280;43703;51.060;-0.086;2022-11-09T06:12:50;98849.37;;;7.18;79.41
57885;BME280;43703;51.060;-0.086;2022-11-09T06:15:14;98850.54;;;7.28;79.01
57885;BME280;43703;51.060;-0.086;2022-11-09T06:17:39;98860.01;;;7.15;79.65
57885;BME280;43703;51.060;-0.086;2022-11-09T06:20:06;98866.47;;;7.30;79.39
57885;BME280;43703;51.060;-0.086;2022-11-09T06:22:31;98874.69;;;7.29;79.32
57885;BME280;43703;51.060;-0.086;2022-11-09T06:24:57;98878.19;;;7.04;79.51
57885;BME280;43703;51.060;-0.086;2022-11-09T06:27:23;98875.53;;;7.01;80.48
57885;BME280;43703;51.060;-0.086;2022-11-09T06:29:48;98878.09;;;7.40;78.34
57885;BME280;43703;51.060;-0.086;2022-11-09T06:32:20;98878.43;;;6.91;80.68
57885;BME280;43703;51.060;-0.086;2022-11-09T06:34:41;98880.58;;;7.10;79.27
57885;BME280;43703;51.060;-0.086;2022-11-09T06:37:06;98895.80;;;7.58;77.52
57885;BME280;43703;51.060;-0.086;2022-11-09T06:39:33;98898.28;;;7.42;77.31
57885;BME280;43703;51.060;-0.086;2022-11-09T06:41:58;98901.64;;;7.61;77.76
57885;BME280;43703;51.060;-0.086;2022-11-09T06:44:23;98916.47;;;7.49;78.10
57885;BME280;43703;51.060;-0.086;2022-11-09T06:46:49;98917.76;;;7.72;77.91
57885;BME280;43703;51.060;-0.086;2022-11-09T06:49:15;98918.18;;;6.91;80.27
57885;BME280;43703;51.060;-0.086;2022-11-09T06:51:41;98932.12;;;7.09;80.79
57885;BME280;43703;51.060;-0.086;2022-11-09T06:54:08;98938.30;;;6.94;80.51
57885;BME280;43703;51.060;-0.086;2022-11-09T06:56:32;98944.95;;;7.18;80.93
57885;BME280;43703;51.060;-0.086;2022-11-09T06:58:59;98951.87;;;6.72;82.52
57885;BME280;43703;51.060;-0.086;2022-11-09T07:01:27;98962.96;;;6.83;82.30
57885;BME280;43703;51.060;-0.086;2022-11-09T07:03:56;98962.32;;;6.82;82.38
57885;BME280;43703;51.060;-0.086;2022-11-09T07:06:16;98965.36;;;6.49;82.35
57885;BME280;43703;51.060;-0.086;2022-11-09T07:08:47;98960.29;;;6.63;83.08
57885;BME280;43703;51.060;-0.086;2022-11-09T07:11:10;98964.96;;;6.68;82.39
57885;BME280;43703;51.060;-0.086;2022-11-09T07:13:39;98963.12;;;6.53;82.42
57885;BME280;43703;51.060;-0.086;2022-11-09T07:16:00;98949.51;;;7.03;81.30
57885;BME280;43703;51.060;-0.086;2022-11-09T07:18:26;98929.26;;;6.56;81.87
57885;BME280;43703;51.060;-0.086;2022-11-09T07:20:53;98928.86;;;7.15;78.23
57885;BME280;43703;51.060;-0.086;2022-11-09T07:23:18;98961.12;;;6.63;80.35
57885;BME280;43703;51.060;-0.086;2022-11-09T07:25:43;98969.74;;;6.43;82.50
57885;BME280;43703;51.060;-0.086;2022-11-09T07:28:11;98973.99;;;6.26;83.08
57885;BME280;43703;51.060;-0.086;2022-11-09T07:30:35;98970.80;;;6.53;81.48
57885;BME280;43703;51.060;-0.086;2022-11-09T07:33:00;98973.98;;;7.06;80.14
57885;BME280;43703;51.060;-0.086;2022-11-09T07:35:27;98973.97;;;7.07;79.89
57885;BME280;43703;51.060;-0.086;2022-11-09T07:37:52;98974.15;;;7.41;79.17
57885;BME280;43703;51.060;-0.086;2022-11-09T07:40:19;98979.35;;;6.82;81.28
57885;BME280;43703;51.060;-0.086;2022-11-09T07:42:49;98987.87;;;7.30;78.88
57885;BME280;43703;51.060;-0.086;2022-11-09T07:45:10;99001.40;;;7.04;78.73
57885;BME280;43703;51.060;-0.086;2022-11-09T07:47:36;99007.16;;;6.44;79.76
57885;BME280;43703;51.060;-0.086;2022-11-09T07:50:05;99018.07;;;6.92;78.73
57885;BME280;43703;51.060;-0.086;2022-11-09T07:52:28;99024.76;;;6.79;78.29
57885;BME280;43703;51.060;-0.086;2022-11-09T07:54:53;99026.89;;;6.40;80.04
57885;BME280;43703;51.060;-0.086;2022-11-09T07:57:19;99026.04;;;6.45;80.56
57885;BME280;43703;51.060;-0.086;2022-11-09T07:59:45;99020.86;;;6.62;79.25
57885;BME280;43703;51.060;-0.086;2022-11-09T08:02:11;99024.22;;;6.58;79.85
57885;BME280;43703;51.060;-0.086;2022-11-09T08:04:37;99028.03;;;6.61;79.25
57885;BME280;43703;51.060;-0.086;2022-11-09T08:07:02;99031.99;;;5.85;81.26
57885;BME280;43703;51.060;-0.086;2022-11-09T08:09:28;99038.79;;;5.87;80.66
57885;BME280;43703;51.060;-0.086;2022-11-09T08:11:54;99045.06;;;6.18;82.01
57885;BME280;43703;51.060;-0.086;2022-11-09T08:14:20;99055.27;;;6.35;81.23
57885;BME280;43703;51.060;-0.086;2022-11-09T08:16:46;99059.07;;;6.74;78.47
57885;BME280;43703;51.060;-0.086;2022-11-09T08:19:12;99065.18;;;6.29;80.78
57885;BME280;43703;51.060;-0.086;2022-11-09T08:21:37;99069.34;;;6.83;79.05
57885;BME280;43703;51.060;-0.086;2022-11-09T08:24:04;99076.14;;;6.58;80.01
57885;BME280;43703;51.060;-0.086;2022-11-09T08:26:29;99078.29;;;6.29;81.14
57885;BME280;43703;51.060;-0.086;2022-11-09T08:28:55;99080.27;;;6.67;80.67
57885;BME280;43703;51.060;-0.086;2022-11-09T08:31:20;99083.23;;;6.59;80.98
57885;BME280;43703;51.060;-0.086;2022-11-09T08:33:46;99092.57;;;7.09;79.90
57885;BME280;43703;51.060;-0.086;2022-11-09T08:36:13;99094.48;;;7.33;80.05
57885;BME280;43703;51.060;-0.086;2022-11-09T08:38:39;99098.35;;;8.27;77.50
57885;BME280;43703;51.060;-0.086;2022-11-09T08:41:05;99099.26;;;8.01;78.19
57885;BME280;43703;51.060;-0.086;2022-11-09T08:43:30;99099.83;;;7.58;78.62
57885;BME280;43703;51.060;-0.086;2022-11-09T08:45:56;99108.28;;;7.37;79.88
57885;BME280;43703;51.060;-0.086;2022-11-09T08:48:21;99116.31;;;7.23;79.11
57885;BME280;43703;51.060;-0.086;2022-11-09T08:50:53;99119.16;;;7.77;81.67
57885;BME280;43703;51.060;-0.086;2022-11-09T08:53:14;99125.45;;;7.70;80.48
57885;BME280;43703;51.060;-0.086;2022-11-09T08:55:40;99131.55;;;8.38;78.80
57885;BME280;43703;51.060;-0.086;2022-11-09T08:58:05;99134.39;;;8.35;78.87
57885;BME280;43703;51.060;-0.086;2022-11-09T09:00:36;99142.85;;;8.64;77.89
57885;BME280;43703;51.060;-0.086;2022-11-09T09:03:02;99141.27;;;8.10;78.89
57885;BME280;43703;51.060;-0.086;2022-11-09T09:05:22;99151.95;;;8.18;78.10
57885;BME280;43703;51.060;-0.086;2022-11-09T09:07:49;99156.48;;;8.78;77.83
57885;BME280;43703;51.060;-0.086;2022-11-09T09:10:14;99155.93;;;8.40;78.03
57885;BME280;43703;51.060;-0.086;2022-11-09T09:12:40;99161.43;;;9.02;78.75
57885;BME280;43703;51.060;-0.086;2022-11-09T09:15:06;99166.42;;;10.01;72.67
57885;BME280;43703;51.060;-0.086;2022-11-09T09:17:32;99166.84;;;10.21;71.04
57885;BME280;43703;51.060;-0.086;2022-11-09T09:19:57;99166.51;;;9.88;72.50
57885;BME280;43703;51.060;-0.086;2022-11-09T09:22:23;99181.60;;;9.74;72.39
57885;BME280;43703;51.060;-0.086;2022-11-09T09:24:49;99178.71;;;9.66;70.23
57885;BME280;43703;51.060;-0.086;2022-11-09T09:27:15;99174.69;;;10.24;69.54
57885;BME280;43703;51.060;-0.086;2022-11-09T09:29:40;99187.39;;;10.78;69.43
57885;BME280;43703;51.060;-0.086;2022-11-09T09:32:06;99188.67;;;10.71;69.12
57885;BME280;43703;51.060;-0.086;2022-11-09T09:34:32;99190.52;;;10.74;67.84
57885;BME280;43703;51.060;-0.086;2022-11-09T09:36:58;99195.10;;;11.77;64.96
57885;BME280;43703;51.060;-0.086;2022-11-09T09:39:28;99200.09;;;10.77;67.34
57885;BME280;43703;51.060;-0.086;2022-11-09T09:41:52;99199.03;;;10.83;67.27
57885;BME280;43703;51.060;-0.086;2022-11-09T09:44:24;99198.57;;;11.78;61.92
57885;BME280;43703;51.060;-0.086;2022-11-09T09:46:46;99205.85;;;11.94;61.92
57885;BME280;43703;51.060;-0.086;2022-11-09T09:49:21;99206.97;;;11.58;64.32
57885;BME280;43703;51.060;-0.086;2022-11-09T09:51:37;99215.07;;;11.57;63.31
57885;BME280;43703;51.060;-0.086;2022-11-09T09:54:06;99220.63;;;11.04;63.27
57885;BME280;43703;51.060;-0.086;2022-11-09T09:56:30;99226.57;;;11.09;65.19
57885;BME280;43703;51.060;-0.086;2022-11-09T09:58:54;99233.53;;;10.75;64.67
57885;BME280;43703;51.060;-0.086;2022-11-09T10:01:20;99237.99;;;9.73;66.21
57885;BME280;43703;51.060;-0.086;2022-11-09T10:03:44;99245.84;;;10.12;67.08
57885;BME280;43703;51.060;-0.086;2022-11-09T10:08:46;99256.22;;;9.40;66.89
57885;BME280;43703;51.060;-0.086;2022-11-09T10:13:57;99259.02;;;9.93;65.41
57885;BME280;43703;51.060;-0.086;2022-11-09T10:15:55;99272.33;;;9.40;68.08
57885;BME280;43703;51.060;-0.086;2022-11-09T10:20:54;99287.28;;;9.41;68.91
57885;BME280;43703;51.060;-0.086;2022-11-09T10:23:26;99284.56;;;9.34;67.04
57885;BME280;43703;51.060;-0.086;2022-11-09T10:25:37;99290.64;;;9.83;65.87
57885;BME280;43703;51.060;-0.086;2022-11-09T10:28:03;99295.56;;;9.51;69.69
57885;BME280;43703;51.060;-0.086;2022-11-09T10:30:29;99302.63;;;9.09;66.94
57885;BME280;43703;51.060;-0.086;2022-11-09T10:32:55;99316.33;;;9.99;65.74
57885;BME280;43703;51.060;-0.086;2022-11-09T10:35:20;99313.79;;;9.71;65.84
57885;BME280;43703;51.060;-0.086;2022-11-09T10:37:45;99315.28;;;9.24;67.17
57885;BME280;43703;51.060;-0.086;2022-11-09T10:40:15;99318.53;;;8.98;67.41
57885;BME280;43703;51.060;-0.086;2022-11-09T10:42:36;99320.68;;;9.11;68.45
57885;BME280;43703;51.060;-0.086;2022-11-09T10:45:14;99319.42;;;8.74;68.29
57885;BME280;43703;51.060;-0.086;2022-11-09T10:47:27;99325.61;;;8.82;71.69
57885;BME280;43703;51.060;-0.086;2022-11-09T10:54:44;99332.46;;;8.75;70.00
57885;BME280;43703;51.060;-0.086;2022-11-09T10:57:16;99341.68;;;9.58;67.73
57885;BME280;43703;51.060;-0.086;2022-11-09T10:59:42;99340.84;;;9.36;68.20
57885;BME280;43703;51.060;-0.086;2022-11-09T11:04:27;99342.63;;;9.31;67.51
57885;BME280;43703;51.060;-0.086;2022-11-09T11:09:22;99347.99;;;8.93;69.47
57885;BME280;43703;51.060;-0.086;2022-11-09T11:11:45;99347.28;;;9.80;67.42
57885;BME280;43703;51.060;-0.086;2022-11-09T11:14:16;99349.46;;;9.17;67.79
57885;BME280;43703;51.060;-0.086;2022-11-09T11:16:37;99347.92;;;9.92;65.66
57885;BME280;43703;51.060;-0.086;2022-11-09T11:21:33;99359.57;;;9.44;67.31
57885;BME280;43703;51.060;-0.086;2022-11-09T11:24:09;99363.77;;;9.70;65.84
57885;BME280;43703;51.060;-0.086;2022-11-09T11:26:29;99366.72;;;9.98;66.37
57885;BME280;43703;51.060;-0.086;2022-11-09T11:28:50;99364.48;;;10.11;66.68
57885;BME280;43703;51.060;-0.086;2022-11-09T11:31:14;99371.79;;;9.55;66.50
57885;BME280;43703;51.060;-0.086;2022-11-09T11:33:38;99373.09;;;9.41;66.75
57885;BME280;43703;51.060;-0.086;2022-11-09T11:36:10;99371.96;;;10.40;64.49
57885;BME280;43703;51.060;-0.086;2022-11-09T11:38:34;99378.17;;;10.26;63.91
57885;BME280;43703;51.060;-0.086;2022-11-09T11:41:01;99377.93;;;10.25;64.30
57885;BME280;43703;51.060;-0.086;2022-11-09T11:43:34;99385.87;;;11.19;62.88
57885;BME280;43703;51.060;-0.086;2022-11-09T11:45:52;99387.28;;;11.43;61.71
57885;BME280;43703;51.060;-0.086;2022-11-09T11:50:43;99386.58;;;11.17;61.05
57885;BME280;43703;51.060;-0.086;2022-11-09T11:53:18;99383.42;;;10.62;61.95
57885;BME280;43703;51.060;-0.086;2022-11-09T11:55:50;99393.18;;;10.48;63.62
57885;BME280;43703;51.060;-0.086;2022-11-09T11:58:10;99393.20;;;12.22;61.01
57885;BME280;43703;51.060;-0.086;2022-11-09T12:00:22;99391.34;;;12.34;56.62
57885;BME280;43703;51.060;-0.086;2022-11-09T12:05:27;99394.97;;;11.90;57.64
57885;BME280;43703;51.060;-0.086;2022-11-09T12:07:46;99394.98;;;11.28;58.40
57885;BME280;43703;51.060;-0.086;2022-11-09T12:10:20;99397.73;;;11.71;57.93
57885;BME280;43703;51.060;-0.086;2022-11-09T12:12:41;99399.32;;;11.60;59.29
57885;BME280;43703;51.060;-0.086;2022-11-09T12:15:14;99395.01;;;11.60;59.07
57885;BME280;43703;51.060;-0.086;2022-11-09T12:17:37;99397.54;;;11.91;55.32
57885;BME280;43703;51.060;-0.086;2022-11-09T12:22:21;99407.87;;;11.42;58.28
57885;BME280;43703;51.060;-0.086;2022-11-09T12:24:54;99408.76;;;11.99;54.76
57885;BME280;43703;51.060;-0.086;2022-11-09T12:29:38;99412.42;;;11.30;57.88
57885;BME280;43703;51.060;-0.086;2022-11-09T12:32:09;99411.77;;;10.41;59.34
57885;BME280;43703;51.060;-0.086;2022-11-09T12:34:27;99412.32;;;11.26;55.99
57885;BME280;43703;51.060;-0.086;2022-11-09T12:36:53;99411.35;;;10.38;58.69
57885;BME280;43703;51.060;-0.086;2022-11-09T12:39:20;99409.07;;;10.66;58.01
57885;BME280;43703;51.060;-0.086;2022-11-09T12:41:41;99414.34;;;10.69;58.46
57885;BME280;43703;51.060;-0.086;2022-11-09T12:44:12;99409.88;;;10.24;59.76
57885;BME280;43703;51.060;-0.086;2022-11-09T12:46:34;99412.64;;;10.02;60.59
57885;BME280;43703;51.060;-0.086;2022-11-09T12:49:02;99420.88;;;10.00;62.35
57885;BME280;43703;51.060;-0.086;2022-11-09T12:51:23;99426.04;;;10.07;62.65
57885;BME280;43703;51.060;-0.086;2022-11-09T12:53:49;99437.19;;;11.24;58.37
57885;BME280;43703;51.060;-0.086;2022-11-09T12:56:18;99435.19;;;11.15;59.74
57885;BME280;43703;51.060;-0.086;2022-11-09T12:58:42;99441.33;;;9.86;60.94
57885;BME280;43703;51.060;-0.086;2022-11-09T13:01:10;99438.94;;;10.28;59.96
57885;BME280;43703;51.060;-0.086;2022-11-09T13:03:35;99447.27;;;9.88;60.44
57885;BME280;43703;51.060;-0.086;2022-11-09T13:08:27;99453.69;;;10.20;60.68
57885;BME280;43703;51.060;-0.086;2022-11-09T13:13:22;99456.89;;;9.84;60.08
57885;BME280;43703;51.060;-0.086;2022-11-09T13:20:43;99470.11;;;9.51;60.67
57885;BME280;43703;51.060;-0.086;2022-11-09T13:23:02;99473.70;;;9.98;61.02
57885;BME280;43703;51.060;-0.086;2022-11-09T13:25:45;99475.44;;;9.44;61.33
57885;BME280;43703;51.060;-0.086;2022-11-09T13:27:52;99471.08;;;9.57;61.25